createdAt,value
2019-01-20T00:02:36.169Z,-6.09
2019-01-20T00:05:47.017Z,-6.12
2019-01-20T00:08:37.174Z,-6.27
2019-01-20T00:14:23.033Z,-6.37
2019-01-20T00:17:13.295Z,-6.51
2019-01-20T00:19:44.374Z,-6.62
2019-01-20T00:22:34.487Z,-6.62
2019-01-20T00:25:45.304Z,-6.58
2019-01-20T00:28:35.522Z,-6.56
2019-01-20T00:31:46.292Z,-6.59
2019-01-20T00:34:17.397Z,-6.59
2019-01-20T00:37:28.177Z,-6.68
2019-01-20T00:43:08.804Z,-6.79
2019-01-20T00:45:58.993Z,-6.90
2019-01-20T00:48:49.048Z,-6.86
2019-01-20T00:51:58.354Z,-6.86
2019-01-20T00:54:29.332Z,-6.91
2019-01-20T00:57:00.394Z,-6.83
2019-01-20T00:59:31.382Z,-6.75
2019-01-20T01:08:28.914Z,-7.06
2019-01-20T01:10:59.975Z,-7.24
2019-01-20T01:13:50.202Z,-7.24
2019-01-20T01:16:21.166Z,-7.25
2019-01-20T01:19:31.980Z,-7.20
2019-01-20T01:22:22.079Z,-7.16
2019-01-20T01:25:32.527Z,-7.17
2019-01-20T01:28:03.890Z,-7.26
2019-01-20T01:30:54.039Z,-7.34
2019-01-20T01:33:44.259Z,-7.35
2019-01-20T01:36:55.106Z,-7.47
2019-01-20T01:39:46.635Z,-7.55
2019-01-20T01:45:47.341Z,-7.65
2019-01-20T01:48:37.480Z,-7.69
2019-01-20T01:51:08.490Z,-7.74
2019-01-20T01:53:58.498Z,-7.78
2019-01-20T01:56:48.539Z,-7.77
2019-01-20T01:59:19.453Z,-7.67
2019-01-20T02:01:50.494Z,-7.63
2019-01-20T02:04:40.649Z,-7.63
2019-01-20T02:07:30.898Z,-7.66
2019-01-20T02:10:01.909Z,-7.57
2019-01-20T02:13:31.786Z,-7.53
2019-01-20T02:16:02.859Z,-7.51
2019-01-20T02:18:33.871Z,-7.46
2019-01-20T02:21:24.110Z,-7.41
2019-01-20T02:24:33.398Z,-7.40
2019-01-20T02:27:23.624Z,-7.51
2019-01-20T02:29:54.688Z,-7.66
2019-01-20T02:32:25.764Z,-7.70
2019-01-20T02:34:56.780Z,-7.74
2019-01-20T02:37:27.782Z,-7.86
2019-01-20T02:39:58.650Z,-7.96
2019-01-20T02:42:29.645Z,-7.97
2019-01-20T02:45:00.553Z,-7.97
2019-01-20T02:47:31.745Z,-8.03
2019-01-20T02:50:02.795Z,-8.00
2019-01-20T02:52:33.849Z,-7.98
2019-01-20T02:55:44.651Z,-8.01
2019-01-20T02:58:34.722Z,-8.03
2019-01-20T03:01:05.731Z,-8.07
2019-01-20T03:03:55.993Z,-8.06
2019-01-20T03:06:46.233Z,-7.97
2019-01-20T03:09:17.267Z,-7.89
2019-01-20T03:11:48.189Z,-7.87
2019-01-20T03:14:19.157Z,-8.07
2019-01-20T03:16:50.108Z,-8.21
2019-01-20T03:19:21.227Z,-8.29
2019-01-20T03:21:52.335Z,-8.20
2019-01-20T03:24:23.419Z,-8.29
2019-01-20T03:26:54.456Z,-8.31
2019-01-20T03:29:25.417Z,-8.29
2019-01-20T03:31:56.471Z,-8.16
2019-01-20T03:34:46.706Z,-8.12
2019-01-20T03:37:36.946Z,-8.13
2019-01-20T03:40:47.763Z,-8.19
2019-01-20T03:43:37.930Z,-8.18
2019-01-20T03:46:08.955Z,-8.19
2019-01-20T03:48:59.133Z,-8.29
2019-01-20T03:51:30.249Z,-8.42
2019-01-20T03:54:20.409Z,-8.56
2019-01-20T03:57:10.703Z,-8.65
2019-01-20T04:00:00.853Z,-8.77
2019-01-20T04:06:01.661Z,-8.89
2019-01-20T04:08:52.026Z,-8.98
2019-01-20T04:11:42.112Z,-8.98
2019-01-20T04:14:32.320Z,-8.97
2019-01-20T04:17:22.642Z,-8.95
2019-01-20T04:20:12.745Z,-8.99
2019-01-20T04:23:02.951Z,-9.02
2019-01-20T04:25:53.045Z,-9.02
2019-01-20T04:28:23.954Z,-9.04
2019-01-20T04:30:54.854Z,-9.01
2019-01-20T04:33:25.728Z,-8.97
2019-01-20T04:35:56.749Z,-8.95
2019-01-20T04:38:27.779Z,-8.92
2019-01-20T04:41:17.929Z,-9.09
2019-01-20T04:44:08.049Z,-9.12
2019-01-20T04:46:39.104Z,-9.17
2019-01-20T04:49:29.404Z,-9.22
2019-01-20T04:55:55.304Z,-9.31
2019-01-20T05:01:37.134Z,-9.25
2019-01-20T05:04:27.519Z,-9.29
2019-01-20T05:10:53.331Z,-9.41
2019-01-20T05:13:43.398Z,-9.41
2019-01-20T05:16:14.402Z,-9.45
2019-01-20T05:19:04.799Z,-9.54
2019-01-20T05:21:35.794Z,-9.54
2019-01-20T05:24:06.680Z,-9.61
2019-01-20T05:26:37.667Z,-9.56
2019-01-20T05:29:08.693Z,-9.42
2019-01-20T05:31:39.576Z,-9.35
2019-01-20T05:34:10.527Z,-9.29
2019-01-20T05:39:31.438Z,-9.40
2019-01-20T05:42:02.455Z,-9.38
2019-01-20T05:44:33.330Z,-9.43
2019-01-20T05:47:44.190Z,-9.47
2019-01-20T05:50:34.426Z,-9.56
2019-01-20T05:53:05.495Z,-9.56
2019-01-20T05:55:36.401Z,-9.69
2019-01-20T05:58:07.317Z,-9.69
2019-01-20T06:00:58.752Z,-9.70
2019-01-20T06:03:48.952Z,-9.69
2019-01-20T06:06:19.953Z,-9.64
2019-01-20T06:08:50.914Z,-9.64
2019-01-20T06:14:30.861Z,-9.62
2019-01-20T06:17:20.840Z,-9.73
2019-01-20T06:19:51.841Z,-9.68
2019-01-20T06:25:52.568Z,-9.29
2019-01-20T06:28:42.802Z,-9.31
2019-01-20T06:31:13.746Z,-9.19
2019-01-20T06:34:03.859Z,-9.09
2019-01-20T06:36:34.823Z,-8.95
2019-01-20T06:39:45.657Z,-8.88
2019-01-20T06:42:16.708Z,-8.83
2019-01-20T06:44:47.679Z,-8.76
2019-01-20T06:51:13.111Z,-8.39
2019-01-20T06:54:03.256Z,-8.39
2019-01-20T06:56:34.247Z,-8.18
2019-01-20T06:59:43.584Z,-7.98
2019-01-20T07:02:33.815Z,-7.88
2019-01-20T07:05:44.623Z,-7.77
2019-01-20T07:08:34.944Z,-7.56
2019-01-20T07:11:25.160Z,-7.56
2019-01-20T07:13:56.169Z,-7.49
2019-01-20T07:16:46.412Z,-7.37
2019-01-20T07:19:36.638Z,-7.30
2019-01-20T07:24:57.532Z,-7.20
2019-01-20T07:27:28.579Z,-7.10
2019-01-20T07:29:59.585Z,-7.09
2019-01-20T07:32:30.543Z,-6.99
2019-01-20T07:35:01.546Z,-6.87
2019-01-20T07:37:32.583Z,-6.69
2019-01-20T07:43:38.919Z,-6.28
2019-01-20T07:46:10.035Z,-6.03
2019-01-20T07:48:41.007Z,-5.86
2019-01-20T07:51:12.046Z,-5.81
2019-01-20T07:53:43.092Z,-5.54
2019-01-20T07:56:14.051Z,-5.30
2019-01-20T07:58:45.016Z,-5.04
2019-01-20T08:01:16.056Z,-4.82
2019-01-20T08:03:46.983Z,-4.68
2019-01-20T08:06:17.963Z,-4.48
2019-01-20T08:08:48.912Z,-4.17
2019-01-20T08:11:58.201Z,-4.02
2019-01-20T08:14:48.301Z,-3.81
2019-01-20T08:17:38.319Z,-3.59
2019-01-20T08:20:28.564Z,-3.29
2019-01-20T08:22:59.537Z,-2.94
2019-01-20T08:25:30.594Z,-2.72
2019-01-20T08:28:01.554Z,-2.33
2019-01-20T08:30:32.533Z,-2.09
2019-01-20T08:33:03.493Z,-1.75
2019-01-20T08:35:34.423Z,-1.51
2019-01-20T08:38:05.533Z,-1.43
2019-01-20T08:40:36.589Z,-0.95
2019-01-20T08:43:07.464Z,-0.78
2019-01-20T08:46:17.026Z,-0.46
2019-01-20T08:48:48.014Z,-0.20
2019-01-20T08:51:38.153Z,-0.01
2019-01-20T08:54:09.160Z,0.32
2019-01-20T08:56:59.394Z,0.66
2019-01-20T08:59:30.359Z,1.21
2019-01-20T09:02:20.513Z,1.45
2019-01-20T09:04:51.448Z,1.20
2019-01-20T09:07:41.694Z,1.43
2019-01-20T09:10:31.777Z,1.72
2019-01-20T09:16:18.882Z,2.11
2019-01-20T09:19:29.771Z,1.71
2019-01-20T09:22:00.742Z,2.37
2019-01-20T09:24:31.903Z,2.66
2019-01-20T09:27:02.743Z,2.78
2019-01-20T09:29:33.732Z,2.13
2019-01-20T09:32:04.695Z,2.28
2019-01-20T09:34:35.659Z,2.87
2019-01-20T09:37:06.687Z,2.52
2019-01-20T09:39:56.905Z,1.98
2019-01-20T09:42:27.877Z,2.15
2019-01-20T09:51:27.616Z,3.60
2019-01-20T09:53:58.665Z,3.07
2019-01-20T09:56:48.728Z,3.02
2019-01-20T09:59:19.596Z,2.94
2019-01-20T10:01:50.578Z,3.02
2019-01-20T10:04:21.477Z,3.06
2019-01-20T10:07:11.751Z,3.45
2019-01-20T10:10:01.799Z,3.79
2019-01-20T10:12:32.667Z,4.77
2019-01-20T10:21:19.476Z,4.21
2019-01-20T10:23:50.753Z,4.41
2019-01-20T10:27:00.475Z,4.07
2019-01-20T10:30:51.187Z,5.00
2019-01-20T10:33:41.348Z,6.01
2019-01-20T10:36:52.275Z,6.28
2019-01-20T10:40:27.456Z,6.29
2019-01-20T10:46:34.195Z,7.39
2019-01-20T10:49:05.404Z,7.32
2019-01-20T10:51:36.475Z,6.32
2019-01-20T10:55:06.492Z,6.35
2019-01-20T10:57:37.583Z,7.00
2019-01-20T11:03:19.163Z,8.03
2019-01-20T11:05:50.237Z,8.06
2019-01-20T11:08:21.428Z,6.59
2019-01-20T11:10:52.479Z,6.21
2019-01-20T11:13:23.586Z,6.98
2019-01-20T11:15:54.638Z,7.24
2019-01-20T11:18:25.633Z,7.07
2019-01-20T11:20:56.610Z,7.41
2019-01-20T11:29:22.906Z,7.44
2019-01-20T11:35:44.368Z,7.20
2019-01-20T11:38:34.662Z,7.28
2019-01-20T11:41:05.767Z,8.20
2019-01-20T11:43:36.695Z,8.64
2019-01-20T11:46:07.723Z,9.57
2019-01-20T11:48:38.694Z,10.07
2019-01-20T11:51:09.597Z,10.18
2019-01-20T11:53:40.560Z,9.03
2019-01-20T11:56:11.439Z,8.79
2019-01-20T11:59:01.485Z,9.03
2019-01-20T12:02:12.287Z,9.20
2019-01-20T12:04:43.446Z,9.20
2019-01-20T12:07:33.696Z,9.58
2019-01-20T12:10:24.000Z,9.13
2019-01-20T12:16:25.025Z,8.27
2019-01-20T12:18:56.029Z,7.92
2019-01-20T12:21:46.335Z,7.71
2019-01-20T12:24:17.250Z,7.22
2019-01-20T12:27:07.579Z,6.75
2019-01-20T12:29:38.597Z,6.23
2019-01-20T12:32:28.724Z,6.70
2019-01-20T12:34:59.767Z,6.69
2019-01-20T12:37:30.734Z,7.92
2019-01-20T12:40:21.107Z,9.61
2019-01-20T12:42:52.127Z,10.25
2019-01-20T12:45:23.136Z,8.98
2019-01-20T12:47:54.076Z,9.16
2019-01-20T12:53:14.910Z,12.09
2019-01-20T12:55:45.870Z,10.61
2019-01-20T12:58:56.703Z,11.88
2019-01-20T13:01:47.027Z,10.07
2019-01-20T13:04:18.061Z,9.69
2019-01-20T13:06:49.153Z,10.76
2019-01-20T13:09:20.201Z,11.17
2019-01-20T13:12:10.374Z,11.86
2019-01-20T13:14:41.506Z,8.22
2019-01-20T13:17:12.562Z,7.58
2019-01-20T13:19:43.477Z,8.49
2019-01-20T13:22:14.474Z,7.56
2019-01-20T13:25:44.363Z,8.75
2019-01-20T13:28:34.599Z,9.22
2019-01-20T13:31:05.671Z,10.33
2019-01-20T13:33:36.956Z,10.29
2019-01-20T13:36:28.623Z,11.87
2019-01-20T13:39:18.702Z,12.65
2019-01-20T13:41:49.755Z,12.51
2019-01-20T13:44:20.681Z,12.44
2019-01-20T13:46:51.739Z,11.68
2019-01-20T13:49:22.716Z,12.11
2019-01-20T13:51:53.655Z,11.22
2019-01-20T13:54:24.732Z,9.90
2019-01-20T13:56:55.740Z,10.87
2019-01-20T13:59:26.915Z,11.40
2019-01-20T14:01:57.959Z,9.90
2019-01-20T14:04:28.970Z,8.97
2019-01-20T14:06:59.951Z,8.74
2019-01-20T14:09:30.962Z,7.77
2019-01-20T14:12:01.965Z,7.75
2019-01-20T14:14:33.265Z,8.62
2019-01-20T14:17:04.577Z,8.71
2019-01-20T14:20:14.016Z,8.57
2019-01-20T14:23:24.924Z,8.04
2019-01-20T14:25:59.702Z,7.83
2019-01-20T14:31:41.689Z,8.31
2019-01-20T14:34:31.820Z,7.89
2019-01-20T14:37:41.372Z,7.44
2019-01-20T14:40:52.247Z,6.79
2019-01-20T14:43:50.887Z,6.22
2019-01-20T14:46:21.840Z,5.64
2019-01-20T14:49:31.128Z,4.60
2019-01-20T14:54:38.832Z,2.75
2019-01-20T15:00:44.404Z,1.27
2019-01-20T15:03:15.441Z,0.59
2019-01-20T15:05:46.498Z,-0.01
2019-01-20T15:08:17.883Z,-0.31
2019-01-20T15:10:48.905Z,-0.59
2019-01-20T15:13:20.095Z,-0.82
2019-01-20T15:15:51.220Z,-1.01
2019-01-20T15:18:22.304Z,-1.08
2019-01-20T15:20:53.421Z,-1.22
2019-01-20T15:23:24.513Z,-1.35
2019-01-20T15:25:55.688Z,-1.45
2019-01-20T15:28:26.686Z,-1.56
2019-01-20T15:30:57.765Z,-1.65
2019-01-20T15:33:28.923Z,-1.74
2019-01-20T15:36:00.036Z,-1.87
2019-01-20T15:38:31.127Z,-1.94
2019-01-20T15:41:02.250Z,-2.04
2019-01-20T15:43:33.444Z,-2.11
2019-01-20T15:46:04.722Z,-2.20
2019-01-20T15:48:55.411Z,-2.31
2019-01-20T15:52:25.493Z,-2.35
2019-01-20T15:55:15.874Z,-2.40
2019-01-20T16:00:48.107Z,-2.60
2019-01-20T16:03:38.435Z,-2.67
2019-01-20T16:06:28.685Z,-2.72
2019-01-20T16:09:18.845Z,-2.76
2019-01-20T16:15:45.967Z,-2.83
2019-01-20T16:18:56.811Z,-2.87
2019-01-20T16:22:07.680Z,-2.97
2019-01-20T16:24:57.784Z,-3.09
2019-01-20T16:32:52.250Z,-3.11
2019-01-20T16:35:42.348Z,-3.18
2019-01-20T16:38:32.756Z,-3.22
2019-01-20T16:41:03.699Z,-3.26
2019-01-20T16:43:34.810Z,-3.26
2019-01-20T16:46:05.962Z,-3.30
2019-01-20T16:48:37.092Z,-3.31
2019-01-20T16:51:27.169Z,-3.32
2019-01-20T16:54:17.648Z,-3.35
2019-01-20T16:57:27.113Z,-3.33
2019-01-20T16:59:58.186Z,-3.38
2019-01-20T17:02:29.246Z,-3.43
2019-01-20T17:05:00.218Z,-3.45
2019-01-20T17:07:50.408Z,-3.48
2019-01-20T17:11:01.247Z,-3.43
2019-01-20T17:13:51.492Z,-3.36
2019-01-20T17:16:41.828Z,-3.22
2019-01-20T17:19:31.894Z,-3.15
2019-01-20T17:22:22.253Z,-3.10
2019-01-20T17:25:12.509Z,-3.05
2019-01-20T17:28:02.736Z,-3.01
2019-01-20T17:31:12.144Z,-3.06
2019-01-20T17:33:43.211Z,-3.10
2019-01-20T17:36:14.142Z,-3.11
2019-01-20T17:38:45.156Z,-3.12
2019-01-20T17:41:16.219Z,-3.08
2019-01-20T17:43:47.193Z,-3.11
2019-01-20T17:46:18.191Z,-3.10
2019-01-20T17:48:49.292Z,-3.10
2019-01-20T17:51:39.707Z,-3.10
2019-01-20T17:54:10.678Z,-3.17
2019-01-20T17:57:01.052Z,-3.13
2019-01-20T17:59:52.661Z,-3.10
2019-01-20T18:03:02.367Z,-3.10
2019-01-20T18:05:52.836Z,-3.07
2019-01-20T18:08:23.898Z,-3.04
2019-01-20T18:10:55.282Z,-3.04
2019-01-20T18:16:19.462Z,-3.02
2019-01-20T18:18:50.823Z,-3.03
2019-01-20T18:21:21.901Z,-3.04
2019-01-20T18:23:53.015Z,-3.01
2019-01-20T18:26:24.046Z,-2.98
2019-01-20T18:32:06.230Z,-2.91
2019-01-20T18:35:17.133Z,-2.93
2019-01-20T18:41:22.104Z,-2.94
2019-01-20T18:49:51.733Z,-3.00
2019-01-20T18:52:22.807Z,-3.02
2019-01-20T18:54:54.022Z,-3.05
2019-01-20T18:57:25.300Z,-3.02
2019-01-20T19:00:36.222Z,-2.99
2019-01-20T19:03:07.520Z,-2.95
2019-01-20T19:08:40.894Z,-2.96
2019-01-20T19:15:06.153Z,-2.96
2019-01-20T19:17:56.490Z,-2.88
2019-01-20T19:21:07.349Z,-2.85
2019-01-20T19:27:13.859Z,-2.82
2019-01-20T19:32:54.164Z,-2.80
2019-01-20T19:36:05.083Z,-2.81
2019-01-20T19:38:36.111Z,-2.83
2019-01-20T19:41:07.151Z,-2.74
2019-01-20T19:43:38.840Z,-2.77
2019-01-20T19:46:16.090Z,-2.78
2019-01-20T19:49:20.911Z,-2.80
2019-01-20T19:51:51.919Z,-2.74
2019-01-20T19:54:42.304Z,-2.73
2019-01-20T19:57:32.393Z,-2.67
2019-01-20T20:00:41.940Z,-2.67
2019-01-20T20:09:17.634Z,-2.72
2019-01-20T20:12:07.896Z,-2.73
2019-01-20T20:14:58.330Z,-2.72
2019-01-20T20:18:09.528Z,-2.76
2019-01-20T20:20:59.635Z,-2.75
2019-01-20T20:23:30.671Z,-2.74
2019-01-20T20:26:01.669Z,-2.78
2019-01-20T20:28:32.755Z,-2.74
2019-01-20T20:31:03.898Z,-2.65
2019-01-20T20:33:35.062Z,-2.63
2019-01-20T20:36:26.107Z,-2.59
2019-01-20T20:39:36.338Z,-2.57
2019-01-20T20:42:26.597Z,-2.55
2019-01-20T20:48:12.409Z,-2.48
2019-01-20T20:51:02.602Z,-2.50
2019-01-20T20:53:33.616Z,-2.47
2019-01-20T20:56:44.438Z,-2.47
2019-01-20T20:59:34.558Z,-2.40
2019-01-20T21:05:19.816Z,-2.38
2019-01-20T21:07:50.803Z,-2.38
2019-01-20T21:10:21.931Z,-2.36
2019-01-20T21:12:52.877Z,-2.36
2019-01-20T21:15:23.943Z,-2.34
2019-01-20T21:17:55.018Z,-2.32
2019-01-20T21:20:25.921Z,-2.31
2019-01-20T21:22:56.841Z,-2.30
2019-01-20T21:25:46.866Z,-2.26
2019-01-20T21:28:37.124Z,-2.27
2019-01-20T21:31:08.083Z,-2.29
2019-01-20T21:33:39.037Z,-2.28
2019-01-20T21:36:10.013Z,-2.27
2019-01-20T21:39:00.338Z,-2.24
2019-01-20T21:41:50.369Z,-2.23
2019-01-20T21:44:21.297Z,-2.25
2019-01-20T21:47:11.442Z,-2.29
2019-01-20T21:50:01.535Z,-2.31
2019-01-20T21:52:51.878Z,-2.34
2019-01-20T21:55:42.075Z,-2.35
2019-01-20T21:58:13.067Z,-2.40
2019-01-20T22:00:44.041Z,-2.45
2019-01-20T22:03:15.023Z,-2.50
2019-01-20T22:05:46.003Z,-2.56
2019-01-20T22:08:16.960Z,-2.65
2019-01-20T22:11:07.031Z,-2.76
2019-01-20T22:13:57.162Z,-2.83
2019-01-20T22:16:28.154Z,-2.87
2019-01-20T22:19:18.262Z,-3.01
2019-01-20T22:22:08.525Z,-3.13
2019-01-20T22:24:39.505Z,-3.26
2019-01-20T22:27:10.418Z,-3.42
2019-01-20T22:29:41.523Z,-3.53
2019-01-20T22:32:12.543Z,-3.61
2019-01-20T22:34:43.408Z,-3.72
2019-01-20T22:37:14.365Z,-3.81
2019-01-20T22:39:45.432Z,-3.89
2019-01-20T22:42:16.324Z,-3.99
2019-01-20T22:44:47.251Z,-4.06
2019-01-20T22:47:18.170Z,-4.19
2019-01-20T22:49:49.071Z,-4.26
2019-01-20T22:52:20.036Z,-4.30
2019-01-20T22:55:50.023Z,-4.31
2019-01-20T22:58:40.052Z,-4.38
2019-01-20T23:01:50.873Z,-4.48
2019-01-20T23:04:41.073Z,-4.50
2019-01-20T23:07:31.260Z,-4.55
2019-01-20T23:10:02.350Z,-4.63
2019-01-20T23:12:33.236Z,-4.61
2019-01-20T23:15:44.578Z,-4.66
2019-01-20T23:18:15.542Z,-4.57
2019-01-20T23:21:26.341Z,-4.57
2019-01-20T23:23:57.239Z,-4.52
2019-01-20T23:26:47.600Z,-4.51
2019-01-20T23:29:37.861Z,-4.44
2019-01-20T23:32:08.850Z,-4.38
2019-01-20T23:34:39.893Z,-4.32
2019-01-20T23:37:30.079Z,-4.33
2019-01-20T23:40:00.973Z,-4.35
2019-01-20T23:42:31.992Z,-4.34
2019-01-20T23:45:02.958Z,-4.36
2019-01-20T23:47:34.092Z,-4.41
2019-01-20T23:50:44.979Z,-4.46
2019-01-20T23:53:16.010Z,-4.55
2019-01-20T23:56:06.179Z,-4.75
2019-01-20T23:58:37.063Z,-4.84
